Details From FTTJ - Ndjamena Hassan Djamous
To HSSS - Khartoum
Flight Number -
Tags Generated
Created
Modified
Stats Distance 1,043 nm / 1,931 km
Max Altitude 0 ft / 0 m
Waypoints 2
Social Downloads 2
Likes 0
Share VATSIM

Download

Looking for another format? Having issues loading an existing format? Contact us
Advertisement - Login to hide

Notes

Generated

Route

FTTJ HSSS

ID Type Via Altitude Latitude Longitude Leg Dist Tot Dist Heading (true) Name
O FTTJ APT - 0 ft / 0 m 12.12492˚ 15.02473˚ - 0 nm - -
O HSSS APT - 0 ft / 0 m 15.60296˚ 32.55303˚ 1042 nm 1042 nm 76° / 81° -

Altitude Profile

Advertisement - Login to hide

Weather


0- 5 10 15 20 25 30 35+ Temperature / ° C

Clouds and Precipitation
Forecast for 2017-12-12 06:00 UTC. Updated an hour ago

Ground ~20,000 ft ~40,000 ft Winds

FTTJ

Details ICAO FTTJ (NDJ)
Name Ndjamena Hassan Djamous
Region Chad
Timezone Africa/Ndjamena (UTC+1.0)
Stats Elevation 968 ft / 295 m (AMSL)
Location 12.133718° 15.033962°
Runways 1
Magnetic Variation 1.182° E

METAR

FTTJ 120400Z 35003KT CAVOK 17/06 Q1012 NOSIG

Decode

TAF

TAF TAF FTTJ 112300Z 1200/1306 36006KT 8000 NSC TEMPO 1208/1213 06010KT

Decode

Departure Runways

ID Width Length Bearing (true) Bearing (mag) Surface Threshold Offset Overrun Length
05 148 ft / 45 m 9,200 ft / 2,804 m 45.72° 44.54° Asphalt 0 ft / 0 m 130 ft / 40 m
23 148 ft / 45 m 9,200 ft / 2,804 m 225.72° 224.54° Asphalt 0 ft / 0 m 200 ft / 61 m

HSSS

Details ICAO HSSS (KRT)
Name KHARTOUM
Region Sudan and South Sudan
Timezone Africa/Khartoum (UTC+3.0)
Stats Elevation 1,265 ft / 386 m (AMSL)
Location 15.589499° 32.553159°
Runways 1
Magnetic Variation 3.384° E

METAR

HSSS 120400Z 02006KT 8000 23/08 Q1013 NOSIG

Decode

TAF

TAF HSSS 112300Z 1200/1306 36008G18KT 8000 NSC TEMPO 1203/1208 4000 BLSA

Decode

Destination Runways

ID Width Length Bearing (true) Bearing (mag) Surface Threshold Offset Overrun Length
18 148 ft / 45 m 9,822 ft / 2,994 m 179.48° 176.10° Asphalt 0 ft / 0 m 220 ft / 67 m
36 148 ft / 45 m 9,822 ft / 2,994 m 359.48° 356.10° Asphalt 0 ft / 0 m 215 ft / 66 m

Approach Navaids

Runway Type Ident Frequency Range Bearing (true) Bearing (mag) Slope Elevation
18 Localiser KIS 110.70 MHz 18 nm / 33 km 180.05° 176.66° - 1,265 ft / 386 m (AMSL)
18 Glidescope KIS 110.70 MHz 10 nm / 19 km 179.48° 176.10° 3.00° 1,265 ft / 386 m (AMSL)
36 Localiser KIN 109.70 MHz 18 nm / 33 km 359.46° 356.08° - 1,265 ft / 386 m (AMSL)
36 Glidescope KIN 109.70 MHz 10 nm / 19 km 359.48° 356.10° 3.00° 1,265 ft / 386 m (AMSL)

Popular Alternatives